Historyczne dane pomiarowe

Dodano dane terminowe – wersja testowa.

Dane z okresu 1951-2019

Wersja bazy: 1.34 [2019-03-16, lista zmian], aktualizacja planowana na 2019-04-15

Dane meteo z obszaru Polski uzyskane na podstawie danych udostępnionych przez Instytut Meteorologii i Gospodarki Wodnej – Państwowy Instytut Badawczy.

 

Wybierz Datę:    

       

TemperaturaWilgotnośćWiatrCiśnienieOpadyŚniegCzas trwania zjawisk
 Stacja t tx tn tng RH VA  wxwx mslp ppp RRR   cm mm wxwxwxwxwxwxwx
1999-08-14 13.6 21.9 5.4- 65.3- 5.7 0.3---- 0.8------------
1999-08-13 14.5 18.0 10.6- 68.0- 6.0 1.0---- 0.0------------
1999-08-12 14.2 17.7 11.9- 69.5- 5.3 0.3---- 0.0------------
1999-08-11 16.3 18.9 13.9- 82.3- 6.7 1.0---- 4.4------------
1999-08-10 19.6 22.9 17.7- 76.5- 6.3 1.3---- 1.3------------
1999-08-09 20.0 25.0 15.1- 76.8- 5.7 3.7---- 0.0------------
1999-08-08 21.9 28.5 15.9- 71.5- 5.3 2.7---- 0.0------------
1999-08-07 19.3 26.5 11.9- 75.3- 4.7 1.0---- 0.0------------
1999-08-06 22.2 27.4 16.5- 67.3- 3.3 1.0---- 0.0------------
1999-08-05 18.9 25.4 11.9- 62.5- 4.7 1.0---- 0.0------------
1999-08-04 19.7 27.5 12.4- 57.3- 3.7 0.0---- 0.0------------
1999-08-03 18.0 26.4 9.3- 57.5- 3.3 0.0---- 0.0------------
1999-08-02 18.0 26.5 8.4- 58.0- 4.3 0.0---- 0.0------------
1999-08-01 18.2 26.4 9.3- 56.0- 3.7 1.0---- 0.0------------
1999-07-31 18.7 26.4 10.2- 61.8- 3.3 0.0---- 0.0------------
1999-07-30 17.7 25.0 9.4- 59.8- 3.3 0.0---- 0.0------------
1999-07-29 16.9 24.6 9.2- 60.5- 3.7 1.0---- 0.0------------
1999-07-28 16.9 23.2 9.3- 63.5- 3.3 1.0---- 0.0------------
1999-07-27 17.5 21.9 13.9- 68.5- 5.3 4.0---- 0.0------------
1999-07-26 18.4 26.6 11.2- 72.8- 5.3 3.7---- 0.0------------
1999-07-25 20.0 26.5 13.5- 68.8- 4.7 1.0---- 0.0------------
1999-07-24 15.2 19.4 12.5- 71.0- 5.3 1.0---- 0.0------------
1999-07-23 14.3 18.5 11.2- 79.8- 6.7 0.0---- 3.0------------
1999-07-22 18.1 23.6 14.3- 57.8- 3.7 0.0---- 0.0------------
1999-07-21 22.0 26.5 17.9- 68.0- 6.3 0.3---- 1.0------------
1999-07-20 23.8 28.2 20.7- 56.5- 3.3 1.0---- 0.0------------
1999-07-19 23.0 28.0 16.5- 46.8- 4.3 1.0---- 0.0------------
1999-07-18 21.1 27.6 14.3- 56.8- 4.3 1.0---- 0.0------------
1999-07-17 17.6 24.8 9.2- 67.5- 4.3 0.0---- 0.0------------
1999-07-16 16.4 21.9 9.8- 64.0- 4.3 0.0---- 0.0------------
1999-07-15 15.3 18.9 12.5- 77.8- 5.3 0.3---- 0.0------------
1999-07-14 19.2 22.3 16.3- 85.3- 7.7 1.3---- 24.6------------
1999-07-13 21.1 25.6 17.4- 83.8- 6.7 1.0---- 0.7------------
1999-07-12 19.9 26.0 14.5- 76.3- 5.7 0.0---- 1.1------------
1999-07-11 18.5 23.2 14.3- 76.3- 4.3 1.0---- 0.0------------
1999-07-10 20.1 23.6 16.3- 72.8- 5.7 3.7---- 0.0------------
1999-07-09 16.9 19.7 13.7- 89.5- 6.3 1.7---- 0.3------------
1999-07-08 15.4 16.7 13.9- 91.3- 7.3 0.0---- 4.5------------
1999-07-07 16.2 18.0 15.4- 90.5- 6.7 0.0---- 2.2------------
1999-07-06 19.7 23.6 17.5- 88.3- 7.7 1.3---- 41.5------------
1999-07-05 24.6 31.0 19.5- 59.8- 6.3 1.3---- 2.4------------
1999-07-04 25.0 30.5 21.1- 56.0- 5.3 2.7---- 0.0------------
1999-07-03 19.3 26.6 10.3- 64.5- 4.3 1.0---- 0.0------------
1999-07-02 18.0 22.7 13.4- 67.8- 6.3 0.3---- 0.8------------
1999-07-01 18.5 22.1 13.9- 77.3- 3.3 0.0---- 0.0------------
1999-06-30 18.3 26.2 11.9- 66.5- 6.0 0.0---- 0.8------------
1999-06-29 17.0 22.9 9.3- 60.8- 3.3 1.0---- 0.0------------
1999-06-28 18.1 22.4 14.1- 70.3- 3.3 0.0---- 0.0------------
1999-06-27 18.6 22.7 14.7- 73.0- 3.3 1.0---- 0.0------------
1999-06-26 14.6 22.4 4.9- 66.3- 4.3 0.0---- 1.3------------
1999-06-25 11.0 17.5 4.4- 67.8- 5.3 0.0---- 1.1------------
1999-06-24 11.4 17.0 5.1- 78.5- 4.7 0.0---- 0.6------------
1999-06-23 11.8 16.0 6.9- 64.3- 4.3 1.0---- 0.0------------
1999-06-22 9.9 11.6 8.8- 79.3- 5.7 1.0---- 1.0------------
1999-06-21 14.2 20.6 10.9- 82.0- 7.0 0.0---- 10.2------------
1999-06-20 16.8 21.3 10.8- 71.3- 5.3 1.0---- 0.3------------
1999-06-19 13.8 16.8 10.3- 88.3- 6.7 2.7---- 0.5------------
1999-06-18 13.9 20.8 10.8- 91.3- 8.0 1.7---- 37.0------------
1999-06-17 17.2 21.3 11.5- 76.8- 5.3 0.0---- 0.6------------
1999-06-16 16.1 20.9 11.2- 73.5- 3.3 0.0---- 0.0------------
339.9 ms

 

Źródłem pochodzenia danych jest Instytut Meteorologii i Gospodarki Wodnej – Państwowy Instytut Badawczy. Dane Instytutu Meteorologii i Gospodarki Wodnej – Państwowego Instytutu Badawczego zostały przetworzone.

Dane źródłowe można odnaleźć na stronie https://dane.imgw.pl